Time;durP1;ratioP1;P1;durP2;ratioP2;P2;SDS_P1;SDS_P2;PMS_P1;PMS_P2;Temp;Humidity;BMP_temperature;BMP_pressure;BME280_temperature;BME280_humidity;BME280_pressure;Samples;Min_cycle;Max_cycle;Signal;HPM_P1;HPM_P2
2022/04/26 09:21:42;;;;;;;2.57;0.88;;;;;;;;;;360515;139;1748125;-69
2022/04/26 09:22:45;;;;;;;2.37;0.84;;;;;;;;;;357869;147;857166;-69
2022/04/26 09:23:47;;;;;;;1.23;0.59;;;;;;;;;;354955;151;866525;-68
2022/04/26 09:24:55;;;;;;;3.17;1.01;;;;;;;;;;351275;149;857324;-69
2022/04/26 09:26:08;;;;;;;2.05;0.81;;;;;;;;;;361812;148;857642;-69
2022/04/26 09:27:15;;;;;;;3.17;0.77;;;;;;;;;;359550;148;858730;-70
2022/04/26 09:28:24;;;;;;;3.83;0.73;;;;;;;;;;359099;146;857405;-69
2022/04/26 09:29:28;;;;;;;2.77;0.75;;;;;;;;;;360488;147;857244;-70
2022/04/26 09:30:30;;;;;;;2.17;0.71;;;;;;;;;;360996;149;857087;-69
2022/04/26 09:31:33;;;;;;;2.71;0.86;;;;;;;;;;360583;149;857613;-68
2022/04/26 09:32:49;;;;;;;3.84;0.88;;;;;;;;;;359400;149;864757;-69
2022/04/26 09:33:52;;;;;;;3.14;0.81;;;;;;;;;;359265;149;865878;-70
2022/04/26 09:34:54;;;;;;;2.33;0.79;;;;;;;;;;353273;149;856998;-70
2022/04/26 09:35:57;;;;;;;1.21;0.68;;;;;;;;;;348300;151;858745;-69
2022/04/26 09:36:59;;;;;;;2.02;0.89;;;;;;;;;;354672;149;858781;-69
2022/04/26 09:38:02;;;;;;;1.94;0.97;;;;;;;;;;347380;152;857826;-69
2022/04/26 09:39:07;;;;;;;4.30;1.05;;;;;;;;;;350649;150;856646;-68
2022/04/26 09:40:09;;;;;;;3.43;0.86;;;;;;;;;;358758;147;859353;-70
2022/04/26 09:41:11;;;;;;;1.65;0.87;;;;;;;;;;359621;147;857708;-71
2022/04/26 09:42:13;;;;;;;3.73;1.16;;;;;;;;;;355747;147;859320;-70
2022/04/26 09:43:14;;;;;;;2.46;0.67;;;;;;;;;;353889;151;864676;-70
2022/04/26 09:44:16;;;;;;;1.64;0.87;;;;;;;;;;354316;152;865591;-70
2022/04/26 09:45:18;;;;;;;2.37;0.81;;;;;;;;;;353235;151;859766;-70
2022/04/26 09:46:21;;;;;;;2.32;0.69;;;;;;;;;;351354;152;858322;-70
2022/04/26 09:47:35;;;;;;;1.84;1.00;;;;;;;;;;354794;149;857031;-69
2022/04/26 09:48:38;;;;;;;4.37;0.80;;;;;;;;;;352071;149;858814;-69
2022/04/26 09:49:40;;;;;;;2.75;0.85;;;;;;;;;;353783;149;857929;-69
2022/04/26 09:50:41;;;;;;;1.42;0.72;;;;;;;;;;353843;152;857067;-69
2022/04/26 09:51:44;;;;;;;3.53;0.96;;;;;;;;;;350401;150;864721;-70
2022/04/26 09:52:45;;;;;;;2.81;0.87;;;;;;;;;;349290;150;857306;-70
2022/04/26 09:53:47;;;;;;;2.46;0.80;;;;;;;;;;349846;150;857065;-70
2022/04/26 09:54:48;;;;;;;1.44;0.86;;;;;;;;;;347155;150;857075;-70
2022/04/26 09:55:50;;;;;;;1.54;0.76;;;;;;;;;;346860;154;856980;-70
2022/04/26 09:56:52;;;;;;;3.69;1.00;;;;;;;;;;342737;153;864638;-70
2022/04/26 09:57:54;;;;;;;5.37;1.09;;;;;;;;;;348037;153;864750;-70
2022/04/26 09:58:56;;;;;;;1.42;0.74;;;;;;;;;;353313;150;857256;-70
2022/04/26 10:00:01;;;;;;;2.71;0.95;;;;;;;;;;353587;150;858994;-70
2022/04/26 10:01:04;;;;;;;1.04;0.73;;;;;;;;;;351434;150;857268;-70
2022/04/26 10:02:07;;;;;;;1.62;0.99;;;;;;;;;;351314;150;860411;-69
2022/04/26 10:03:09;;;;;;;1.74;0.68;;;;;;;;;;351509;150;857233;-70
2022/04/26 10:04:13;;;;;;;2.80;1.00;;;;;;;;;;351050;150;857311;-69
2022/04/26 10:05:20;;;;;;;4.22;0.92;;;;;;;;;;345849;153;857263;-70
2022/04/26 10:06:21;;;;;;;2.56;1.19;;;;;;;;;;345148;152;857297;-70
2022/04/26 10:07:23;;;;;;;3.59;1.01;;;;;;;;;;350910;152;857716;-70
2022/04/26 10:08:24;;;;;;;2.28;0.76;;;;;;;;;;351991;152;857986;-69
2022/04/26 10:09:26;;;;;;;1.70;0.89;;;;;;;;;;352036;150;857673;-70
2022/04/26 10:10:28;;;;;;;2.49;0.63;;;;;;;;;;345261;153;865413;-70
2022/04/26 10:11:30;;;;;;;2.44;0.69;;;;;;;;;;346057;153;865367;-70
2022/04/26 10:12:32;;;;;;;5.04;0.81;;;;;;;;;;351709;153;865298;-69
2022/04/26 10:13:42;;;;;;;1.94;0.71;;;;;;;;;;352040;150;857309;-69
2022/04/26 10:14:44;;;;;;;4.87;0.91;;;;;;;;;;348382;151;858945;-68
2022/04/26 10:15:45;;;;;;;4.26;1.14;;;;;;;;;;349803;151;859022;-69
2022/04/26 10:16:47;;;;;;;2.96;0.43;;;;;;;;;;351172;150;865585;-68
2022/04/26 10:17:48;;;;;;;1.80;0.71;;;;;;;;;;351292;150;857320;-69
2022/04/26 10:18:51;;;;;;;3.12;0.54;;;;;;;;;;349396;153;857527;-68
2022/04/26 10:19:53;;;;;;;2.26;0.82;;;;;;;;;;344609;154;857755;-69
2022/04/26 10:20:55;;;;;;;1.76;0.73;;;;;;;;;;346820;153;857188;-72
2022/04/26 10:21:58;;;;;;;1.76;0.55;;;;;;;;;;338689;155;859127;-71
2022/04/26 10:23:01;;;;;;;2.62;0.89;;;;;;;;;;337672;153;857278;-70
2022/04/26 10:24:07;;;;;;;2.03;0.69;;;;;;;;;;346940;153;866342;-71
2022/04/26 10:25:12;;;;;;;1.43;0.70;;;;;;;;;;348574;150;857200;-73
2022/04/26 10:26:33;;;;;;;1.28;0.52;;;;;;;;;;349618;151;857288;-74
2022/04/26 10:27:25;;;;;;;2.87;0.50;;;;;;;;;;340667;153;866034;-73
2022/04/26 10:28:28;;;;;;;1.91;0.64;;;;;;;;;;350162;153;857844;-69
2022/04/26 10:29:29;;;;;;;2.21;0.50;;;;;;;;;;351541;153;857370;-69
2022/04/26 10:30:44;;;;;;;1.16;0.50;;;;;;;;;;351557;153;857249;-70
2022/04/26 10:31:50;;;;;;;1.05;0.61;;;;;;;;;;345196;155;864868;-71
2022/04/26 10:32:52;;;;;;;2.26;0.52;;;;;;;;;;339419;158;857255;-71
2022/04/26 10:33:54;;;;;;;3.19;0.68;;;;;;;;;;342923;155;858461;-71
2022/04/26 10:34:56;;;;;;;1.43;0.69;;;;;;;;;;338625;158;857257;-68
2022/04/26 10:35:59;;;;;;;2.94;0.74;;;;;;;;;;337918;157;859048;-71
2022/04/26 10:37:10;;;;;;;4.19;0.72;;;;;;;;;;341162;157;858776;-70
2022/04/26 10:38:14;;;;;;;1.62;0.60;;;;;;;;;;347897;152;856181;-71
2022/04/26 10:39:23;;;;;;;3.03;0.93;;;;;;;;;;352504;153;857928;-70
2022/04/26 10:40:26;;;;;;;2.02;1.08;;;;;;;;;;348934;152;857459;-70
2022/04/26 10:41:34;;;;;;;3.50;1.05;;;;;;;;;;351811;150;866580;-69
2022/04/26 10:42:36;;;;;;;2.97;0.77;;;;;;;;;;351470;153;857722;-68
2022/04/26 10:43:38;;;;;;;2.23;0.68;;;;;;;;;;350693;150;858914;-69
2022/04/26 10:44:44;;;;;;;1.35;0.77;;;;;;;;;;348849;153;859530;-69
2022/04/26 10:46:04;;;;;;;4.22;0.89;;;;;;;;;;350252;153;864866;-69
2022/04/26 10:47:07;;;;;;;3.40;0.79;;;;;;;;;;350343;153;860157;-68
2022/04/26 10:48:25;;;;;;;2.91;0.80;;;;;;;;;;349126;153;858945;-70
2022/04/26 10:49:31;;;;;;;2.22;0.61;;;;;;;;;;344852;153;859396;-68
2022/04/26 10:50:33;;;;;;;1.49;0.96;;;;;;;;;;342184;157;857119;-69
2022/04/26 10:51:35;;;;;;;3.46;0.70;;;;;;;;;;337956;159;857164;-69
2022/04/26 10:52:37;;;;;;;2.77;0.76;;;;;;;;;;338523;156;860150;-68
2022/04/26 10:53:39;;;;;;;2.91;0.76;;;;;;;;;;345720;156;857717;-69
2022/04/26 10:54:55;;;;;;;1.47;0.62;;;;;;;;;;345629;156;857954;-69
2022/04/26 10:56:00;;;;;;;2.25;0.75;;;;;;;;;;345401;156;857685;-69
2022/04/26 10:57:03;;;;;;;1.94;0.83;;;;;;;;;;345544;156;857252;-68
2022/04/26 10:58:04;;;;;;;1.78;0.84;;;;;;;;;;345740;155;857043;-68
2022/04/26 10:59:13;;;;;;;4.29;0.91;;;;;;;;;;345812;155;859087;-68
2022/04/26 11:00:17;;;;;;;2.04;0.80;;;;;;;;;;348249;150;858430;-69
2022/04/26 11:01:21;;;;;;;2.92;0.76;;;;;;;;;;348685;153;857255;-67
2022/04/26 11:02:23;;;;;;;6.64;0.86;;;;;;;;;;350416;153;865807;-69
2022/04/26 11:03:25;;;;;;;4.71;1.09;;;;;;;;;;350934;153;859694;-69
2022/04/26 11:04:27;;;;;;;1.22;0.58;;;;;;;;;;351340;151;857236;-70
2022/04/26 11:05:32;;;;;;;2.86;0.71;;;;;;;;;;353932;152;857141;-70
2022/04/26 11:06:42;;;;;;;1.59;0.78;;;;;;;;;;351042;151;864830;-69
2022/04/26 11:07:41;;;;;;;1.47;0.77;;;;;;;;;;349909;152;858084;-69
2022/04/26 11:08:44;;;;;;;2.91;0.99;;;;;;;;;;351587;153;860000;-69
2022/04/26 11:09:50;;;;;;;1.55;0.79;;;;;;;;;;351880;153;858292;-69
2022/04/26 11:11:00;;;;;;;1.97;0.89;;;;;;;;;;351673;152;859760;-70
2022/04/26 11:12:03;;;;;;;1.59;0.97;;;;;;;;;;349663;154;859187;-71
2022/04/26 11:13:05;;;;;;;1.43;0.82;;;;;;;;;;350134;152;858669;-69
2022/04/26 11:14:07;;;;;;;1.17;0.92;;;;;;;;;;351623;153;857158;-71
2022/04/26 11:15:10;;;;;;;1.33;0.69;;;;;;;;;;351900;152;857810;-70
2022/04/26 11:16:13;;;;;;;4.24;0.97;;;;;;;;;;351889;152;864744;-68
2022/04/26 11:17:15;;;;;;;1.50;0.95;;;;;;;;;;352937;151;857732;-70
2022/04/26 11:18:20;;;;;;;2.37;0.91;;;;;;;;;;356193;150;866375;-71
2022/04/26 11:19:29;;;;;;;1.99;0.87;;;;;;;;;;349410;154;859497;-70
2022/04/26 11:20:35;;;;;;;1.54;0.72;;;;;;;;;;349440;154;857173;-72
2022/04/26 11:21:35;;;;;;;2.55;0.71;;;;;;;;;;344906;153;859183;-72
2022/04/26 11:22:56;;;;;;;1.17;0.74;;;;;;;;;;345838;153;857656;-72
2022/04/26 11:28:00;;;;;;;1.52;0.84;;;;;;;;;;338667;158;857229;-73
2022/04/26 11:29:03;;;;;;;3.70;1.28;;;;;;;;;;338357;159;859657;-74
2022/04/26 11:30:06;;;;;;;1.49;1.00;;;;;;;;;;328748;163;859405;-73
2022/04/26 11:31:07;;;;;;;1.99;1.17;;;;;;;;;;338596;159;858925;-72
2022/04/26 11:32:11;;;;;;;5.58;1.19;;;;;;;;;;336725;158;858800;-71
2022/04/26 11:33:15;;;;;;;3.51;0.96;;;;;;;;;;335743;159;864904;-72
2022/04/26 11:34:16;;;;;;;4.64;1.29;;;;;;;;;;339992;156;857829;-72
2022/04/26 11:35:21;;;;;;;2.54;1.21;;;;;;;;;;339852;158;859578;-71
2022/04/26 11:36:24;;;;;;;2.98;1.36;;;;;;;;;;344543;154;857669;-72
2022/04/26 11:37:25;;;;;;;2.71;1.02;;;;;;;;;;344394;156;857136;-72
2022/04/26 11:38:27;;;;;;;3.58;1.30;;;;;;;;;;350650;151;857693;-72
2022/04/26 11:39:29;;;;;;;6.27;1.29;;;;;;;;;;356485;150;857690;-72
2022/04/26 11:40:34;;;;;;;2.94;1.32;;;;;;;;;;351725;150;858581;-73
2022/04/26 11:41:36;;;;;;;2.92;1.37;;;;;;;;;;349962;151;857464;-71
2022/04/26 11:42:38;;;;;;;2.40;1.14;;;;;;;;;;345759;155;859113;-70
2022/04/26 11:43:40;;;;;;;3.36;1.28;;;;;;;;;;341664;155;859377;-70
2022/04/26 11:45:00;;;;;;;1.67;1.06;;;;;;;;;;345147;156;863998;-70
2022/04/26 11:46:02;;;;;;;3.58;1.18;;;;;;;;;;339154;157;859482;-70
2022/04/26 11:47:04;;;;;;;4.13;1.32;;;;;;;;;;340777;158;858141;-70
2022/04/26 11:48:09;;;;;;;1.24;0.96;;;;;;;;;;348882;148;857712;-69
2022/04/26 11:49:10;;;;;;;2.62;1.20;;;;;;;;;;351917;153;857636;-69
2022/04/26 11:50:13;;;;;;;1.87;1.07;;;;;;;;;;352150;153;857184;-69
2022/04/26 11:51:15;;;;;;;2.77;1.12;;;;;;;;;;351719;151;857728;-69
2022/04/26 11:52:23;;;;;;;1.80;0.72;;;;;;;;;;350956;153;857809;-69
2022/04/26 11:54:37;;;;;;;1.15;1.04;;;;;;;;;;339946;158;859008;-69
2022/04/26 11:55:39;;;;;;;2.78;0.96;;;;;;;;;;342456;153;857680;-70
2022/04/26 11:56:42;;;;;;;1.96;1.19;;;;;;;;;;343416;157;857624;-69
2022/04/26 11:57:45;;;;;;;3.01;1.14;;;;;;;;;;343374;156;859081;-70
2022/04/26 11:58:46;;;;;;;1.86;0.97;;;;;;;;;;343960;156;859150;-69
2022/04/26 11:59:48;;;;;;;1.64;0.97;;;;;;;;;;344003;156;866061;-69
2022/04/26 12:00:59;;;;;;;3.81;1.26;;;;;;;;;;344043;156;864934;-69
2022/04/26 12:02:00;;;;;;;3.94;1.44;;;;;;;;;;344885;156;865426;-68
2022/04/26 12:03:05;;;;;;;1.56;1.22;;;;;;;;;;345652;156;857747;-69
2022/04/26 12:04:07;;;;;;;3.22;1.25;;;;;;;;;;345495;156;866421;-69
2022/04/26 12:05:08;;;;;;;2.48;1.19;;;;;;;;;;345637;156;866081;-73
2022/04/26 12:06:10;;;;;;;2.11;1.09;;;;;;;;;;345576;156;864434;-69
2022/04/26 12:07:12;;;;;;;1.39;1.18;;;;;;;;;;345588;156;866232;-68
2022/04/26 12:08:14;;;;;;;3.39;1.46;;;;;;;;;;347167;154;858688;-69
2022/04/26 12:09:16;;;;;;;2.25;1.25;;;;;;;;;;349525;154;864488;-69
2022/04/26 12:10:27;;;;;;;2.23;1.32;;;;;;;;;;349587;154;864922;-68
2022/04/26 12:11:37;;;;;;;2.77;1.48;;;;;;;;;;349371;154;860816;-69
2022/04/26 12:12:47;;;;;;;1.92;1.10;;;;;;;;;;349778;154;858922;-69
2022/04/26 12:13:59;;;;;;;2.56;1.09;;;;;;;;;;342104;154;857772;-70
2022/04/26 12:15:04;;;;;;;2.03;1.28;;;;;;;;;;343825;156;857346;-70
2022/04/26 12:16:14;;;;;;;2.00;1.06;;;;;;;;;;343727;155;859416;-70
2022/04/26 12:17:29;;;;;;;3.77;1.19;;;;;;;;;;343120;156;858877;-70
2022/04/26 12:18:23;;;;;;;2.03;1.02;;;;;;;;;;333548;158;857593;-68
2022/04/26 12:19:37;;;;;;;4.69;1.28;;;;;;;;;;335652;158;857220;-69
2022/04/26 12:20:55;;;;;;;3.82;1.12;;;;;;;;;;342821;156;865090;-68
2022/04/26 12:22:00;;;;;;;3.03;1.46;;;;;;;;;;347179;155;857693;-68
2022/04/26 12:23:05;;;;;;;2.51;1.24;;;;;;;;;;347302;154;857708;-68
2022/04/26 12:24:13;;;;;;;2.41;1.64;;;;;;;;;;347262;154;857394;-69
2022/04/26 12:25:16;;;;;;;2.52;1.11;;;;;;;;;;345823;153;857647;-68
2022/04/26 12:26:18;;;;;;;3.26;1.15;;;;;;;;;;343972;156;857289;-68
2022/04/26 12:27:22;;;;;;;2.13;1.06;;;;;;;;;;344798;153;857277;-68
2022/04/26 12:28:23;;;;;;;1.17;1.08;;;;;;;;;;345135;155;865172;-68
2022/04/26 12:29:26;;;;;;;4.66;1.11;;;;;;;;;;344706;155;857156;-68
2022/04/26 12:30:29;;;;;;;2.36;1.16;;;;;;;;;;345190;156;864575;-69
2022/04/26 12:31:30;;;;;;;1.72;1.00;;;;;;;;;;345979;155;857208;-68
2022/04/26 12:32:34;;;;;;;1.28;1.04;;;;;;;;;;344011;152;857701;-69
2022/04/26 12:33:36;;;;;;;1.23;1.10;;;;;;;;;;343403;154;864821;-70
2022/04/26 12:34:39;;;;;;;1.85;1.08;;;;;;;;;;346350;153;857251;-71
2022/04/26 12:35:43;;;;;;;1.71;1.03;;;;;;;;;;347782;153;859196;-70
2022/04/26 12:36:58;;;;;;;3.41;1.32;;;;;;;;;;345673;152;867260;-67
2022/04/26 12:38:04;;;;;;;3.48;1.14;;;;;;;;;;344686;154;857105;-68
2022/04/26 12:39:06;;;;;;;3.99;1.11;;;;;;;;;;344623;153;859391;-72
2022/04/26 12:40:09;;;;;;;3.18;1.05;;;;;;;;;;345955;155;858040;-73
2022/04/26 12:41:10;;;;;;;1.93;0.81;;;;;;;;;;347707;153;857104;-75
2022/04/26 12:42:13;;;;;;;1.32;0.91;;;;;;;;;;345448;153;866467;-75
2022/04/26 12:43:28;;;;;;;1.82;1.17;;;;;;;;;;345408;154;866022;-71
2022/04/26 12:44:29;;;;;;;3.33;1.12;;;;;;;;;;335491;155;857665;-70
2022/04/26 12:45:32;;;;;;;1.56;0.83;;;;;;;;;;338561;156;857742;-70
2022/04/26 12:46:46;;;;;;;1.18;0.93;;;;;;;;;;345124;155;857271;-68
2022/04/26 12:50:44;;;;;;;1.91;1.21;;;;;;;;;;348401;152;857304;-69
2022/04/26 12:51:47;;;;;;;1.36;0.98;;;;;;;;;;348121;152;857230;-70
2022/04/26 12:52:49;;;;;;;1.83;1.15;;;;;;;;;;349490;152;857467;-70
2022/04/26 12:53:51;;;;;;;1.85;1.07;;;;;;;;;;345036;154;864995;-71
2022/04/26 12:54:54;;;;;;;2.77;1.35;;;;;;;;;;348415;154;857116;-68
2022/04/26 12:55:57;;;;;;;2.27;1.24;;;;;;;;;;348223;154;857719;-69
2022/04/26 12:56:59;;;;;;;2.76;1.10;;;;;;;;;;347307;153;857189;-69
2022/04/26 12:58:03;;;;;;;2.21;1.10;;;;;;;;;;345301;155;863695;-68
2022/04/26 12:59:04;;;;;;;1.90;1.14;;;;;;;;;;343692;154;856171;-68
2022/04/26 13:00:07;;;;;;;1.66;1.15;;;;;;;;;;337711;158;859179;-68
2022/04/26 13:01:09;;;;;;;1.49;1.11;;;;;;;;;;339484;156;856203;-68
2022/04/26 13:02:12;;;;;;;3.86;1.20;;;;;;;;;;344059;156;858365;-69
2022/04/26 13:03:15;;;;;;;1.83;1.32;;;;;;;;;;343014;155;857391;-69
2022/04/26 13:04:16;;;;;;;1.47;0.95;;;;;;;;;;343709;156;858344;-69
2022/04/26 13:05:19;;;;;;;4.41;0.93;;;;;;;;;;344565;155;857728;-67
2022/04/26 13:06:20;;;;;;;1.62;1.16;;;;;;;;;;344886;156;857353;-68
2022/04/26 13:07:22;;;;;;;1.64;1.19;;;;;;;;;;344967;156;864982;-67
2022/04/26 13:08:24;;;;;;;2.59;1.31;;;;;;;;;;344977;156;865857;-67
2022/04/26 13:09:26;;;;;;;1.24;1.07;;;;;;;;;;345040;156;866644;-69
2022/04/26 13:10:28;;;;;;;2.71;1.16;;;;;;;;;;345023;156;857311;-69
2022/04/26 13:11:29;;;;;;;1.98;1.14;;;;;;;;;;347839;152;857131;-70
2022/04/26 13:12:31;;;;;;;1.50;1.26;;;;;;;;;;349003;153;858913;-69
2022/04/26 13:13:34;;;;;;;3.28;1.37;;;;;;;;;;349097;153;859209;-70
2022/04/26 13:14:35;;;;;;;1.42;0.81;;;;;;;;;;349059;153;858921;-69
2022/04/26 13:15:37;;;;;;;1.65;0.98;;;;;;;;;;347046;153;858640;-68
2022/04/26 13:16:39;;;;;;;1.18;0.91;;;;;;;;;;350449;152;857282;-69
2022/04/26 13:17:40;;;;;;;1.86;1.14;;;;;;;;;;351551;152;866365;-69
2022/04/26 13:18:42;;;;;;;1.71;1.29;;;;;;;;;;351633;152;864989;-70
2022/04/26 13:19:44;;;;;;;1.73;1.07;;;;;;;;;;351390;152;857123;-69
2022/04/26 13:20:46;;;;;;;2.25;1.14;;;;;;;;;;351017;152;866154;-70
2022/04/26 13:21:47;;;;;;;1.31;1.06;;;;;;;;;;351300;152;859137;-70
2022/04/26 13:22:49;;;;;;;2.09;1.37;;;;;;;;;;347160;155;857353;-69
2022/04/26 13:23:52;;;;;;;2.40;1.27;;;;;;;;;;346195;155;859454;-69
2022/04/26 13:24:54;;;;;;;1.47;1.03;;;;;;;;;;345290;156;858547;-69
2022/04/26 13:25:57;;;;;;;1.09;0.79;;;;;;;;;;345813;155;865757;-69
2022/04/26 13:26:59;;;;;;;1.94;1.32;;;;;;;;;;346461;155;864708;-69
2022/04/26 13:28:04;;;;;;;1.85;1.30;;;;;;;;;;345808;154;857370;-70
2022/04/26 13:29:05;;;;;;;1.55;1.11;;;;;;;;;;347334;155;858935;-69
2022/04/26 13:30:07;;;;;;;1.65;1.09;;;;;;;;;;347519;155;860803;-69
2022/04/26 13:31:09;;;;;;;1.47;1.32;;;;;;;;;;347465;155;857289;-69
2022/04/26 13:32:10;;;;;;;1.99;1.14;;;;;;;;;;345712;155;857212;-69
2022/04/26 13:33:12;;;;;;;1.66;1.26;;;;;;;;;;344617;152;857251;-69
2022/04/26 13:34:14;;;;;;;1.54;1.20;;;;;;;;;;344470;156;865992;-70
2022/04/26 13:35:15;;;;;;;1.66;1.15;;;;;;;;;;345208;153;865151;-70
2022/04/26 13:36:17;;;;;;;2.57;1.40;;;;;;;;;;345138;155;858435;-69
2022/04/26 13:37:19;;;;;;;2.24;0.84;;;;;;;;;;345166;155;864809;-69
2022/04/26 13:38:21;;;;;;;2.15;1.03;;;;;;;;;;345168;156;864829;-69
2022/04/26 13:39:23;;;;;;;0.84;0.71;;;;;;;;;;349196;152;857209;-69
2022/04/26 13:40:25;;;;;;;1.11;1.01;;;;;;;;;;353524;152;867057;-69
2022/04/26 13:41:27;;;;;;;1.09;0.85;;;;;;;;;;353491;152;866483;-70
2022/04/26 13:42:30;;;;;;;1.26;1.00;;;;;;;;;;353515;152;859959;-69
2022/04/26 13:43:32;;;;;;;2.86;0.98;;;;;;;;;;351968;151;864574;-68
2022/04/26 13:44:54;;;;;;;1.14;0.84;;;;;;;;;;353265;152;858319;-70
2022/04/26 13:45:55;;;;;;;2.56;0.99;;;;;;;;;;367771;146;864455;-70
2022/04/26 13:46:58;;;;;;;1.32;1.09;;;;;;;;;;366350;146;857130;-68
2022/04/26 13:48:01;;;;;;;2.48;1.24;;;;;;;;;;362703;146;858310;-69
2022/04/26 13:49:03;;;;;;;2.09;1.02;;;;;;;;;;367787;146;859638;-69
2022/04/26 13:50:06;;;;;;;1.39;1.06;;;;;;;;;;367489;144;865728;-69
2022/04/26 13:51:08;;;;;;;1.69;0.95;;;;;;;;;;364595;147;866465;-69
2022/04/26 13:52:09;;;;;;;2.25;1.16;;;;;;;;;;363642;147;866753;-70
2022/04/26 13:53:11;;;;;;;1.10;0.93;;;;;;;;;;364365;147;858036;-70
2022/04/26 13:54:13;;;;;;;1.13;0.79;;;;;;;;;;361762;146;864731;-69
2022/04/26 13:55:17;;;;;;;3.26;1.20;;;;;;;;;;362828;148;858913;-69
2022/04/26 13:56:18;;;;;;;1.83;1.00;;;;;;;;;;362575;146;857571;-69
2022/04/26 13:57:20;;;;;;;1.57;1.31;;;;;;;;;;365645;147;857656;-69
2022/04/26 13:58:21;;;;;;;1.56;1.05;;;;;;;;;;366231;146;860855;-69
2022/04/26 13:59:23;;;;;;;1.95;1.19;;;;;;;;;;366077;146;864917;-69
2022/04/26 14:00:25;;;;;;;1.32;0.95;;;;;;;;;;364851;144;857209;-69
2022/04/26 14:01:27;;;;;;;1.67;0.99;;;;;;;;;;361894;146;857314;-69
2022/04/26 14:02:29;;;;;;;2.29;1.34;;;;;;;;;;362768;148;857045;-68
2022/04/26 14:03:31;;;;;;;1.81;1.31;;;;;;;;;;362392;148;865118;-70
2022/04/26 14:04:33;;;;;;;1.21;1.07;;;;;;;;;;365556;145;864841;-70
2022/04/26 14:05:35;;;;;;;1.48;0.91;;;;;;;;;;371951;144;857049;-69
2022/04/26 14:06:37;;;;;;;2.09;1.35;;;;;;;;;;371967;144;857337;-70
2022/04/26 14:07:39;;;;;;;3.21;1.21;;;;;;;;;;371707;144;859726;-69
2022/04/26 14:08:43;;;;;;;1.85;1.20;;;;;;;;;;374207;144;865010;-69
2022/04/26 14:09:44;;;;;;;1.22;1.09;;;;;;;;;;374268;143;860522;-69
2022/04/26 14:10:46;;;;;;;2.28;1.07;;;;;;;;;;374323;143;858051;-69
2022/04/26 14:11:47;;;;;;;1.77;1.36;;;;;;;;;;369760;143;859683;-70
2022/04/26 14:12:49;;;;;;;1.46;1.22;;;;;;;;;;364476;147;857197;-69
2022/04/26 14:21:52;;;;;;;2.19;1.99;;;;;;;;;;360978;149;859371;-69
2022/04/26 14:22:54;;;;;;;3.09;1.98;;;;;;;;;;361186;149;865151;-68
2022/04/26 14:24:01;;;;;;;2.63;1.92;;;;;;;;;;361880;144;857253;-68
2022/04/26 14:25:03;;;;;;;2.47;1.95;;;;;;;;;;364747;146;866030;-69
2022/04/26 14:26:06;;;;;;;3.12;1.89;;;;;;;;;;367145;145;858956;-70
2022/04/26 14:27:08;;;;;;;3.15;2.32;;;;;;;;;;371469;144;865277;-68
2022/04/26 14:28:10;;;;;;;3.29;2.11;;;;;;;;;;371645;144;857104;-69
2022/04/26 14:29:12;;;;;;;2.97;1.91;;;;;;;;;;363774;147;864616;-70
2022/04/26 14:30:14;;;;;;;3.07;2.41;;;;;;;;;;366648;144;857687;-70
2022/04/26 14:31:15;;;;;;;7.52;2.49;;;;;;;;;;374925;143;857477;-69
2022/04/26 14:32:17;;;;;;;3.39;2.97;;;;;;;;;;372480;143;858456;-70
2022/04/26 14:33:19;;;;;;;4.23;3.06;;;;;;;;;;374611;143;864693;-70
2022/04/26 14:34:22;;;;;;;5.24;2.59;;;;;;;;;;367210;143;864745;-69
2022/04/26 14:35:23;;;;;;;4.67;2.78;;;;;;;;;;373993;143;859929;-69
2022/04/26 14:36:28;;;;;;;4.48;2.74;;;;;;;;;;375141;143;858879;-68
2022/04/26 14:37:33;;;;;;;6.13;2.96;;;;;;;;;;368762;143;864814;-68
2022/04/26 14:38:35;;;;;;;3.28;2.18;;;;;;;;;;365229;143;857430;-69
2022/04/26 14:39:37;;;;;;;6.92;3.03;;;;;;;;;;361675;146;858938;-68
2022/04/26 14:40:39;;;;;;;5.36;3.49;;;;;;;;;;356471;149;863760;-68
2022/04/26 14:41:41;;;;;;;3.86;3.28;;;;;;;;;;363432;144;857895;-69
2022/04/26 14:42:46;;;;;;;3.63;2.76;;;;;;;;;;364115;147;866462;-69
2022/04/26 14:43:46;;;;;;;4.54;3.11;;;;;;;;;;364151;147;859372;-68
2022/04/26 14:44:48;;;;;;;4.23;3.26;;;;;;;;;;362863;148;865961;-69
2022/04/26 14:45:51;;;;;;;4.36;2.54;;;;;;;;;;363219;147;857838;-68
2022/04/26 14:46:54;;;;;;;4.94;3.74;;;;;;;;;;364284;143;865813;-68
2022/04/26 14:47:56;;;;;;;6.62;3.46;;;;;;;;;;365068;143;858689;-69
2022/04/26 14:48:58;;;;;;;5.19;3.43;;;;;;;;;;365742;147;858087;-69
2022/04/26 14:50:04;;;;;;;4.25;3.35;;;;;;;;;;365543;143;864961;-69
2022/04/26 14:51:04;;;;;;;4.51;3.21;;;;;;;;;;365176;147;857614;-69
2022/04/26 14:52:09;;;;;;;5.62;4.24;;;;;;;;;;365449;147;857607;-68
2022/04/26 14:53:10;;;;;;;5.22;3.38;;;;;;;;;;365278;146;859020;-69
2022/04/26 14:54:12;;;;;;;10.16;4.50;;;;;;;;;;365393;146;865093;-70
2022/04/26 14:55:14;;;;;;;6.22;4.23;;;;;;;;;;367122;146;864749;-69
2022/04/26 14:56:16;;;;;;;5.02;3.97;;;;;;;;;;366630;146;858133;-68
2022/04/26 14:57:21;;;;;;;5.91;3.72;;;;;;;;;;361647;148;864801;-70
2022/04/26 14:58:23;;;;;;;8.33;4.49;;;;;;;;;;364766;146;858602;-69
2022/04/26 14:59:25;;;;;;;5.96;4.39;;;;;;;;;;361807;146;858515;-69
2022/04/26 15:00:26;;;;;;;8.09;4.62;;;;;;;;;;364581;147;857189;-68
2022/04/26 15:01:30;;;;;;;6.69;2.89;;;;;;;;;;358547;146;857174;-70
2022/04/26 15:02:38;;;;;;;5.14;4.29;;;;;;;;;;357873;149;858628;-69
2022/04/26 15:03:38;;;;;;;6.26;3.97;;;;;;;;;;367624;144;857245;-69
2022/04/26 15:04:40;;;;;;;7.39;5.01;;;;;;;;;;369449;143;859853;-69
2022/04/26 15:05:41;;;;;;;6.79;4.54;;;;;;;;;;364635;147;859253;-69
2022/04/26 15:06:43;;;;;;;6.79;4.41;;;;;;;;;;364008;148;857674;-69
2022/04/26 15:10:25;;;;;;;8.56;5.31;;;;;;;;;;363176;146;865945;-71
2022/04/26 15:11:26;;;;;;;8.09;5.77;;;;;;;;;;367914;146;865995;-68
2022/04/26 15:16:42;;;;;;;10.65;6.42;;;;;;;;;;364922;147;858981;-70
2022/04/26 15:17:44;;;;;;;9.23;5.95;;;;;;;;;;364865;147;857750;-69
2022/04/26 15:18:45;;;;;;;11.57;6.85;;;;;;;;;;364257;147;857898;-67
2022/04/26 15:19:48;;;;;;;9.47;6.09;;;;;;;;;;364766;147;857148;-69
2022/04/26 15:20:53;;;;;;;10.33;5.90;;;;;;;;;;367213;143;858780;-68
2022/04/26 15:21:55;;;;;;;9.76;6.11;;;;;;;;;;374746;141;858985;-68
2022/04/26 15:22:57;;;;;;;7.14;4.21;;;;;;;;;;371170;143;857546;-68
2022/04/26 15:23:58;;;;;;;7.71;5.86;;;;;;;;;;372047;143;865009;-68
2022/04/26 15:25:00;;;;;;;8.11;5.72;;;;;;;;;;367844;146;857291;-67
2022/04/26 15:26:06;;;;;;;10.19;6.13;;;;;;;;;;365644;146;857806;-68
2022/04/26 15:27:06;;;;;;;8.70;5.82;;;;;;;;;;366895;146;859357;-69
2022/04/26 15:28:10;;;;;;;10.57;5.83;;;;;;;;;;367966;146;866725;-68
2022/04/26 15:29:13;;;;;;;10.37;6.01;;;;;;;;;;367213;146;864918;-69
2022/04/26 15:30:15;;;;;;;8.44;5.99;;;;;;;;;;368151;146;859513;-68
2022/04/26 15:31:18;;;;;;;8.29;5.11;;;;;;;;;;366215;146;857148;-68
2022/04/26 15:32:23;;;;;;;11.60;5.38;;;;;;;;;;362936;144;864760;-67
2022/04/26 15:33:24;;;;;;;7.71;4.14;;;;;;;;;;363877;146;857134;-66
2022/04/26 15:34:25;;;;;;;6.53;3.83;;;;;;;;;;364023;146;860384;-67
2022/04/26 15:35:27;;;;;;;7.83;4.04;;;;;;;;;;366514;147;857611;-68
2022/04/26 15:36:29;;;;;;;9.85;4.75;;;;;;;;;;366465;146;865287;-74
2022/04/26 15:37:32;;;;;;;5.66;4.13;;;;;;;;;;367402;146;857195;-71
2022/04/26 15:38:34;;;;;;;7.09;4.16;;;;;;;;;;357979;148;865639;-72
2022/04/26 15:39:35;;;;;;;6.42;4.61;;;;;;;;;;355104;149;857019;-69
2022/04/26 15:40:37;;;;;;;7.26;4.51;;;;;;;;;;365488;146;859686;-67
2022/04/26 15:41:39;;;;;;;6.39;3.85;;;;;;;;;;364193;143;857467;-66
2022/04/26 15:42:41;;;;;;;5.30;4.08;;;;;;;;;;366367;146;857092;-70
2022/04/26 15:43:43;;;;;;;6.21;4.09;;;;;;;;;;363879;146;857181;-71
2022/04/26 15:44:45;;;;;;;5.91;3.35;;;;;;;;;;364519;146;857262;-70
2022/04/26 15:45:47;;;;;;;6.40;3.92;;;;;;;;;;364314;146;859347;-73
2022/04/26 15:46:52;;;;;;;5.97;4.04;;;;;;;;;;363489;147;865984;-73
2022/04/26 15:47:54;;;;;;;7.06;4.86;;;;;;;;;;365985;146;859226;-74
2022/04/26 15:48:56;;;;;;;5.26;3.68;;;;;;;;;;361582;146;864928;-74
2022/04/26 15:50:01;;;;;;;6.00;4.09;;;;;;;;;;366852;146;864801;-75
2022/04/26 15:51:05;;;;;;;6.88;4.44;;;;;;;;;;361113;149;857829;-76
2022/04/26 15:52:07;;;;;;;6.15;4.30;;;;;;;;;;357268;148;858643;-75
2022/04/26 15:53:08;;;;;;;4.75;3.81;;;;;;;;;;355686;149;857289;-76
2022/04/26 15:54:10;;;;;;;8.34;4.27;;;;;;;;;;358820;149;864968;-76
2022/04/26 15:55:12;;;;;;;5.83;4.26;;;;;;;;;;368164;143;858599;-76
2022/04/26 15:56:14;;;;;;;5.56;4.04;;;;;;;;;;369878;143;864765;-75
2022/04/26 15:57:16;;;;;;;5.40;3.85;;;;;;;;;;367006;146;864730;-76
2022/04/26 15:58:17;;;;;;;5.13;4.09;;;;;;;;;;364691;146;857166;-75